sensor_id;sensor_type;location;lat;lon;timestamp;pressure;altitude;pressure_sealevel;temperature;humidity
38054;BME280;23859;50.672;7.164;2023-05-11T00:00:20;47431.88;;;-140.95;76.41
38054;BME280;23859;50.672;7.164;2023-05-11T00:02:46;47454.06;;;-140.95;77.33
38054;BME280;23859;50.672;7.164;2023-05-11T00:05:12;47437.94;;;-140.95;77.20
38054;BME280;23859;50.672;7.164;2023-05-11T00:07:38;47441.97;;;-140.95;76.83
38054;BME280;23859;50.672;7.164;2023-05-11T00:10:04;47443.97;;;-140.95;77.97
38054;BME280;23859;50.672;7.164;2023-05-11T00:12:31;47458.09;;;-140.95;78.90
38054;BME280;23859;50.672;7.164;2023-05-11T00:14:57;47450.03;;;-140.95;77.78
38054;BME280;23859;50.672;7.164;2023-05-11T00:17:23;47437.94;;;-140.95;78.04
38054;BME280;23859;50.672;7.164;2023-05-11T00:19:49;47454.06;;;-140.95;79.22
38054;BME280;23859;50.672;7.164;2023-05-11T00:22:15;47435.91;;;-140.95;78.03
38054;BME280;23859;50.672;7.164;2023-05-11T00:24:41;47450.03;;;-140.95;79.64
38054;BME280;23859;50.672;7.164;2023-05-11T00:27:07;47454.06;;;-140.95;79.80
38054;BME280;23859;50.672;7.164;2023-05-11T00:29:33;47431.88;;;-140.95;80.03
38054;BME280;23859;50.672;7.164;2023-05-11T00:31:59;47433.91;;;-140.95;79.96
38054;BME280;23859;50.672;7.164;2023-05-11T00:34:25;47429.88;;;-140.95;79.48
38054;BME280;23859;50.672;7.164;2023-05-11T00:36:51;47425.84;;;-140.95;80.35
38054;BME280;23859;50.672;7.164;2023-05-11T00:39:17;47439.94;;;-140.95;80.33
38054;BME280;23859;50.672;7.164;2023-05-11T00:41:43;47441.97;;;-140.95;79.63
38054;BME280;23859;50.672;7.164;2023-05-11T00:44:09;47437.94;;;-140.95;78.96
38054;BME280;23859;50.672;7.164;2023-05-11T00:46:36;47433.91;;;-140.95;79.28
38054;BME280;23859;50.672;7.164;2023-05-11T00:49:02;47423.81;;;-140.95;79.65
38054;BME280;23859;50.672;7.164;2023-05-11T00:51:29;47452.03;;;-140.95;79.69
38054;BME280;23859;50.672;7.164;2023-05-11T00:53:57;47425.84;;;-140.95;78.84
38054;BME280;23859;50.672;7.164;2023-05-11T00:56:23;47429.88;;;-140.95;78.85
38054;BME280;23859;50.672;7.164;2023-05-11T00:58:50;47446.00;;;-140.95;79.27
38054;BME280;23859;50.672;7.164;2023-05-11T01:01:16;47425.84;;;-140.95;80.15
38054;BME280;23859;50.672;7.164;2023-05-11T01:03:43;47443.97;;;-140.95;79.63
38054;BME280;23859;50.672;7.164;2023-05-11T01:09:28;47415.78;;;-140.95;80.54
38054;BME280;23859;50.672;7.164;2023-05-11T01:12:14;47456.06;;;-140.95;80.98
38054;BME280;23859;50.672;7.164;2023-05-11T01:15:10;47437.94;;;-140.95;81.11
38054;BME280;23859;50.672;7.164;2023-05-11T01:17:57;47437.94;;;-140.95;80.97
38054;BME280;23859;50.672;7.164;2023-05-11T01:20:27;47405.69;;;-140.95;80.42
38054;BME280;23859;50.672;7.164;2023-05-11T01:23:22;47421.81;;;-140.95;79.22
38054;BME280;23859;50.672;7.164;2023-05-11T01:29:16;47446.00;;;-140.95;79.69
38054;BME280;23859;50.672;7.164;2023-05-11T01:31:49;47441.97;;;-140.95;80.56
38054;BME280;23859;50.672;7.164;2023-05-11T01:34:21;47441.97;;;-140.95;81.98
38054;BME280;23859;50.672;7.164;2023-05-11T01:36:59;47446.00;;;-140.95;82.46
38054;BME280;23859;50.672;7.164;2023-05-11T01:39:36;47448.00;;;-140.95;82.52
38054;BME280;23859;50.672;7.164;2023-05-11T01:42:07;47437.94;;;-140.95;82.64
38054;BME280;23859;50.672;7.164;2023-05-11T01:44:38;47468.16;;;-140.95;82.76
38054;BME280;23859;50.672;7.164;2023-05-11T01:47:05;47435.91;;;-140.95;82.82
38054;BME280;23859;50.672;7.164;2023-05-11T01:49:35;47466.16;;;-140.95;82.85
38054;BME280;23859;50.672;7.164;2023-05-11T01:52:06;47458.09;;;-140.95;83.22
38054;BME280;23859;50.672;7.164;2023-05-11T01:54:33;47454.06;;;-140.95;83.19
38054;BME280;23859;50.672;7.164;2023-05-11T01:57:01;47466.16;;;-140.95;83.39
38054;BME280;23859;50.672;7.164;2023-05-11T01:59:28;47476.22;;;-140.95;83.09
38054;BME280;23859;50.672;7.164;2023-05-11T02:01:56;47466.16;;;-140.95;83.10
38054;BME280;23859;50.672;7.164;2023-05-11T02:04:24;47462.13;;;-140.95;83.30
38054;BME280;23859;50.672;7.164;2023-05-11T02:06:53;47446.00;;;-140.95;83.15
38054;BME280;23859;50.672;7.164;2023-05-11T02:09:24;47478.22;;;-140.95;83.11
38054;BME280;23859;50.672;7.164;2023-05-11T02:11:51;47466.16;;;-140.95;83.96
38054;BME280;23859;50.672;7.164;2023-05-11T02:14:19;47458.09;;;-140.95;84.08
38054;BME280;23859;50.672;7.164;2023-05-11T02:16:47;47458.09;;;-140.95;83.90
38054;BME280;23859;50.672;7.164;2023-05-11T02:19:15;47456.06;;;-140.95;83.91
38054;BME280;23859;50.672;7.164;2023-05-11T02:21:42;47466.16;;;-140.95;83.80
38054;BME280;23859;50.672;7.164;2023-05-11T02:24:10;47458.09;;;-140.95;83.71
38054;BME280;23859;50.672;7.164;2023-05-11T02:26:37;47454.06;;;-140.95;83.38
38054;BME280;23859;50.672;7.164;2023-05-11T02:29:03;47456.06;;;-140.95;83.22
38054;BME280;23859;50.672;7.164;2023-05-11T02:31:33;47363.38;;;-140.95;83.78
38054;BME280;23859;50.672;7.164;2023-05-11T02:34:09;47478.22;;;-140.95;83.92
38054;BME280;23859;50.672;7.164;2023-05-11T02:36:43;47490.31;;;-140.95;83.86
38054;BME280;23859;50.672;7.164;2023-05-11T02:39:12;47462.13;;;-140.95;83.82
38054;BME280;23859;50.672;7.164;2023-05-11T02:41:43;47482.25;;;-140.95;83.38
38054;BME280;23859;50.672;7.164;2023-05-11T02:44:13;47478.22;;;-140.95;83.35
38054;BME280;23859;50.672;7.164;2023-05-11T02:46:40;47399.66;;;-140.95;83.75
38054;BME280;23859;50.672;7.164;2023-05-11T02:49:08;47466.16;;;-140.95;83.27
38054;BME280;23859;50.672;7.164;2023-05-11T02:51:40;47476.22;;;-140.95;83.05
38054;BME280;23859;50.672;7.164;2023-05-11T02:54:08;47470.19;;;-140.95;83.61
38054;BME280;23859;50.672;7.164;2023-05-11T02:56:37;47482.25;;;-140.95;83.71
38054;BME280;23859;50.672;7.164;2023-05-11T02:59:03;47488.31;;;-140.95;84.02
38054;BME280;23859;50.672;7.164;2023-05-11T03:01:30;47482.25;;;-140.95;84.61
38054;BME280;23859;50.672;7.164;2023-05-11T03:03:56;47474.22;;;-140.95;84.71
38054;BME280;23859;50.672;7.164;2023-05-11T03:06:22;47482.25;;;-140.95;84.27
38054;BME280;23859;50.672;7.164;2023-05-11T03:08:48;47482.25;;;-140.95;84.29
38054;BME280;23859;50.672;7.164;2023-05-11T03:11:16;47476.22;;;-140.95;83.99
38054;BME280;23859;50.672;7.164;2023-05-11T03:13:44;47482.25;;;-140.95;83.88
38054;BME280;23859;50.672;7.164;2023-05-11T03:16:11;47389.56;;;-140.95;84.14
38054;BME280;23859;50.672;7.164;2023-05-11T03:18:39;47482.25;;;-140.95;84.05
38054;BME280;23859;50.672;7.164;2023-05-11T03:21:06;47474.22;;;-140.95;83.66
38054;BME280;23859;50.672;7.164;2023-05-11T03:23:35;47482.25;;;-140.95;83.95
38054;BME280;23859;50.672;7.164;2023-05-11T03:26:02;47476.22;;;-140.95;83.83
38054;BME280;23859;50.672;7.164;2023-05-11T03:28:29;47470.19;;;-140.95;83.90
38054;BME280;23859;50.672;7.164;2023-05-11T03:30:56;47470.19;;;-140.95;83.96
38054;BME280;23859;50.672;7.164;2023-05-11T03:33:22;47470.19;;;-140.95;83.67
38054;BME280;23859;50.672;7.164;2023-05-11T03:35:52;47482.25;;;-140.95;83.48
38054;BME280;23859;50.672;7.164;2023-05-11T03:38:22;47474.22;;;-140.95;83.63
38054;BME280;23859;50.672;7.164;2023-05-11T03:40:51;47454.06;;;-140.95;83.81
38054;BME280;23859;50.672;7.164;2023-05-11T03:43:20;47472.19;;;-140.95;83.37
38054;BME280;23859;50.672;7.164;2023-05-11T03:45:49;47474.22;;;-140.95;83.46
38054;BME280;23859;50.672;7.164;2023-05-11T03:48:16;47492.34;;;-140.95;83.58
38054;BME280;23859;50.672;7.164;2023-05-11T03:50:43;47482.25;;;-140.95;83.52
38054;BME280;23859;50.672;7.164;2023-05-11T03:53:10;47454.06;;;-140.95;83.29
38054;BME280;23859;50.672;7.164;2023-05-11T03:55:37;47456.06;;;-140.95;83.36
38054;BME280;23859;50.672;7.164;2023-05-11T03:58:07;47490.31;;;-140.95;82.93
38054;BME280;23859;50.672;7.164;2023-05-11T04:00:39;47474.22;;;-140.95;83.16
38054;BME280;23859;50.672;7.164;2023-05-11T04:03:07;47474.22;;;-140.95;83.23
38054;BME280;23859;50.672;7.164;2023-05-11T04:05:33;47462.13;;;-140.95;83.51
38054;BME280;23859;50.672;7.164;2023-05-11T04:08:00;47466.16;;;-140.95;83.31
38054;BME280;23859;50.672;7.164;2023-05-11T04:10:27;47439.94;;;-140.95;83.61
38054;BME280;23859;50.672;7.164;2023-05-11T04:12:53;47470.19;;;-140.95;83.57
38054;BME280;23859;50.672;7.164;2023-05-11T04:15:19;47466.16;;;-140.95;83.88
38054;BME280;23859;50.672;7.164;2023-05-11T04:17:45;47458.09;;;-140.95;83.83
38054;BME280;23859;50.672;7.164;2023-05-11T04:20:12;47474.22;;;-140.95;83.80
38054;BME280;23859;50.672;7.164;2023-05-11T04:22:38;47474.22;;;-140.95;84.46
38054;BME280;23859;50.672;7.164;2023-05-11T04:25:04;47446.00;;;-140.95;83.73
38054;BME280;23859;50.672;7.164;2023-05-11T04:27:33;47472.19;;;-140.95;82.94
38054;BME280;23859;50.672;7.164;2023-05-11T04:30:00;47474.22;;;-140.95;82.97
38054;BME280;23859;50.672;7.164;2023-05-11T04:32:26;47482.25;;;-140.95;83.03
38054;BME280;23859;50.672;7.164;2023-05-11T04:34:53;47472.19;;;-140.95;83.37
38054;BME280;23859;50.672;7.164;2023-05-11T04:37:19;47458.09;;;-140.95;83.64
38054;BME280;23859;50.672;7.164;2023-05-11T04:39:45;47476.22;;;-140.95;83.68
38054;BME280;23859;50.672;7.164;2023-05-11T04:42:11;47405.69;;;-140.95;83.85
38054;BME280;23859;50.672;7.164;2023-05-11T04:44:37;47478.22;;;-140.95;83.79
38054;BME280;23859;50.672;7.164;2023-05-11T04:47:04;47466.16;;;-140.95;83.62
38054;BME280;23859;50.672;7.164;2023-05-11T04:49:30;47462.13;;;-140.95;82.83
38054;BME280;23859;50.672;7.164;2023-05-11T04:51:56;47443.97;;;-140.95;82.60
38054;BME280;23859;50.672;7.164;2023-05-11T04:54:22;47456.06;;;-140.95;82.69
38054;BME280;23859;50.672;7.164;2023-05-11T04:56:48;47478.22;;;-140.95;82.91
38054;BME280;23859;50.672;7.164;2023-05-11T04:59:14;47470.19;;;-140.95;82.65
38054;BME280;23859;50.672;7.164;2023-05-11T05:01:40;47468.16;;;-140.95;82.25
38054;BME280;23859;50.672;7.164;2023-05-11T05:04:06;47466.16;;;-140.95;82.39
38054;BME280;23859;50.672;7.164;2023-05-11T05:06:33;47466.16;;;-140.95;82.41
38054;BME280;23859;50.672;7.164;2023-05-11T05:08:59;47456.06;;;-140.95;80.80
38054;BME280;23859;50.672;7.164;2023-05-11T05:11:25;47474.22;;;-140.95;81.27
38054;BME280;23859;50.672;7.164;2023-05-11T05:13:51;47456.06;;;-140.95;81.18
38054;BME280;23859;50.672;7.164;2023-05-11T05:16:18;47470.19;;;-140.95;81.03
38054;BME280;23859;50.672;7.164;2023-05-11T05:18:44;47466.16;;;-140.95;80.95
38054;BME280;23859;50.672;7.164;2023-05-11T05:21:10;47462.13;;;-140.95;81.31
38054;BME280;23859;50.672;7.164;2023-05-11T05:23:36;47458.09;;;-140.95;81.54
38054;BME280;23859;50.672;7.164;2023-05-11T05:26:02;47456.06;;;-140.95;81.18
38054;BME280;23859;50.672;7.164;2023-05-11T05:28:28;47458.09;;;-140.95;80.73
38054;BME280;23859;50.672;7.164;2023-05-11T05:30:54;47452.03;;;-140.95;81.32
38054;BME280;23859;50.672;7.164;2023-05-11T05:33:20;47446.00;;;-140.95;81.46
38054;BME280;23859;50.672;7.164;2023-05-11T05:35:46;47466.16;;;-140.95;81.40
38054;BME280;23859;50.672;7.164;2023-05-11T05:38:12;47454.06;;;-140.95;81.42
38054;BME280;23859;50.672;7.164;2023-05-11T05:40:38;47458.09;;;-140.95;81.20
38054;BME280;23859;50.672;7.164;2023-05-11T05:43:05;47460.09;;;-140.95;81.80
38054;BME280;23859;50.672;7.164;2023-05-11T05:45:31;47450.03;;;-140.95;80.81
38054;BME280;23859;50.672;7.164;2023-05-11T05:47:57;47462.13;;;-140.95;79.35
38054;BME280;23859;50.672;7.164;2023-05-11T05:50:26;47448.00;;;-140.95;80.74
38054;BME280;23859;50.672;7.164;2023-05-11T05:52:52;47448.00;;;-140.95;80.84
38054;BME280;23859;50.672;7.164;2023-05-11T05:55:18;47450.03;;;-140.95;80.76
38054;BME280;23859;50.672;7.164;2023-05-11T05:57:44;47446.00;;;-140.95;79.27
38054;BME280;23859;50.672;7.164;2023-05-11T06:00:11;48062.66;;;-140.95;80.03
38054;BME280;23859;50.672;7.164;2023-05-11T06:02:37;47437.94;;;-140.95;79.03
38054;BME280;23859;50.672;7.164;2023-05-11T06:05:03;47439.94;;;-140.95;79.14
38054;BME280;23859;50.672;7.164;2023-05-11T06:07:29;47421.81;;;-140.95;79.25
38054;BME280;23859;50.672;7.164;2023-05-11T06:09:56;47446.00;;;-140.95;78.56
38054;BME280;23859;50.672;7.164;2023-05-11T06:12:22;47452.03;;;-140.95;78.86
38054;BME280;23859;50.672;7.164;2023-05-11T06:14:48;47433.91;;;-140.95;78.07
38054;BME280;23859;50.672;7.164;2023-05-11T06:17:14;47446.00;;;-140.95;78.22
38054;BME280;23859;50.672;7.164;2023-05-11T06:19:40;47423.81;;;-140.95;78.88
38054;BME280;23859;50.672;7.164;2023-05-11T06:22:06;47439.94;;;-140.95;77.34
38054;BME280;23859;50.672;7.164;2023-05-11T06:24:32;47441.97;;;-140.95;78.37
38054;BME280;23859;50.672;7.164;2023-05-11T06:26:58;47443.97;;;-140.95;77.55
38054;BME280;23859;50.672;7.164;2023-05-11T06:29:25;47437.94;;;-140.95;78.26
38054;BME280;23859;50.672;7.164;2023-05-11T06:31:51;47433.91;;;-140.95;77.26
38054;BME280;23859;50.672;7.164;2023-05-11T06:34:19;47407.72;;;-140.95;78.05
38054;BME280;23859;50.672;7.164;2023-05-11T06:36:46;47417.78;;;-140.95;77.71
38054;BME280;23859;50.672;7.164;2023-05-11T06:39:12;47425.84;;;-140.95;78.22
38054;BME280;23859;50.672;7.164;2023-05-11T06:41:38;47437.94;;;-140.95;78.65
38054;BME280;23859;50.672;7.164;2023-05-11T06:44:04;47413.75;;;-140.95;77.92
38054;BME280;23859;50.672;7.164;2023-05-11T06:46:31;47421.81;;;-140.95;77.94
38054;BME280;23859;50.672;7.164;2023-05-11T06:48:57;47433.91;;;-140.95;77.52
38054;BME280;23859;50.672;7.164;2023-05-11T06:51:23;47437.94;;;-140.95;77.61
38054;BME280;23859;50.672;7.164;2023-05-11T06:53:49;47405.69;;;-140.95;76.81
38054;BME280;23859;50.672;7.164;2023-05-11T06:56:15;47409.72;;;-140.95;77.20
38054;BME280;23859;50.672;7.164;2023-05-11T06:58:42;47421.81;;;-140.95;77.05
38054;BME280;23859;50.672;7.164;2023-05-11T07:01:09;47417.78;;;-140.95;77.02
38054;BME280;23859;50.672;7.164;2023-05-11T07:03:36;47409.72;;;-140.95;77.20
38054;BME280;23859;50.672;7.164;2023-05-11T07:06:02;47395.63;;;-140.95;76.29
38054;BME280;23859;50.672;7.164;2023-05-11T07:08:28;47389.56;;;-140.95;74.65
38054;BME280;23859;50.672;7.164;2023-05-11T07:10:55;47397.63;;;-140.95;74.76
38054;BME280;23859;50.672;7.164;2023-05-11T07:13:21;47397.63;;;-140.95;75.04
38054;BME280;23859;50.672;7.164;2023-05-11T07:15:47;47401.66;;;-140.95;75.89
38054;BME280;23859;50.672;7.164;2023-05-11T07:18:14;47399.66;;;-140.95;76.36
38054;BME280;23859;50.672;7.164;2023-05-11T07:20:41;47405.69;;;-140.95;75.93
38054;BME280;23859;50.672;7.164;2023-05-11T07:23:07;47399.66;;;-140.95;76.41
38054;BME280;23859;50.672;7.164;2023-05-11T07:25:33;47393.59;;;-140.95;78.12
38054;BME280;23859;50.672;7.164;2023-05-11T07:27:59;47385.53;;;-140.95;76.80
38054;BME280;23859;50.672;7.164;2023-05-11T07:30:25;47399.66;;;-140.95;75.06
38054;BME280;23859;50.672;7.164;2023-05-11T07:32:51;47399.66;;;-140.95;74.67
38054;BME280;23859;50.672;7.164;2023-05-11T07:35:17;47387.56;;;-140.95;75.40
38054;BME280;23859;50.672;7.164;2023-05-11T07:37:43;47383.53;;;-140.95;72.98
38054;BME280;23859;50.672;7.164;2023-05-11T07:40:09;47395.63;;;-140.95;73.76
38054;BME280;23859;50.672;7.164;2023-05-11T07:42:35;47377.47;;;-140.95;73.22
38054;BME280;23859;50.672;7.164;2023-05-11T07:45:02;47361.34;;;-140.95;72.23
38054;BME280;23859;50.672;7.164;2023-05-11T07:47:28;47365.38;;;-140.95;71.97
38054;BME280;23859;50.672;7.164;2023-05-11T07:49:54;47313.00;;;-140.95;71.80
38054;BME280;23859;50.672;7.164;2023-05-11T07:52:20;47375.47;;;-140.95;71.36
38054;BME280;23859;50.672;7.164;2023-05-11T07:54:46;47361.34;;;-140.95;71.10
38054;BME280;23859;50.672;7.164;2023-05-11T07:57:12;47349.28;;;-140.95;72.40
38054;BME280;23859;50.672;7.164;2023-05-11T07:59:39;47361.34;;;-140.95;72.68
38054;BME280;23859;50.672;7.164;2023-05-11T08:02:06;47345.25;;;-140.95;73.55
38054;BME280;23859;50.672;7.164;2023-05-11T08:04:34;47333.16;;;-140.95;73.27
38054;BME280;23859;50.672;7.164;2023-05-11T08:07:01;47335.16;;;-140.95;71.44
38054;BME280;23859;50.672;7.164;2023-05-11T08:09:27;47357.34;;;-140.95;71.29
38054;BME280;23859;50.672;7.164;2023-05-11T08:11:54;47329.13;;;-140.95;70.80
38054;BME280;23859;50.672;7.164;2023-05-11T08:14:22;47266.66;;;-140.95;69.58
38054;BME280;23859;50.672;7.164;2023-05-11T08:16:48;47325.09;;;-140.95;69.03
38054;BME280;23859;50.672;7.164;2023-05-11T08:19:15;47300.91;;;-140.95;71.77
38054;BME280;23859;50.672;7.164;2023-05-11T08:21:41;47319.03;;;-140.95;69.85
38054;BME280;23859;50.672;7.164;2023-05-11T08:24:07;47302.91;;;-140.95;69.09
38054;BME280;23859;50.672;7.164;2023-05-11T08:26:33;47280.75;;;-140.95;67.78
38054;BME280;23859;50.672;7.164;2023-05-11T08:28:59;47286.81;;;-140.95;67.48
38054;BME280;23859;50.672;7.164;2023-05-11T08:31:25;47280.75;;;-140.95;67.19
38054;BME280;23859;50.672;7.164;2023-05-11T08:33:51;47272.69;;;-140.95;66.56
38054;BME280;23859;50.672;7.164;2023-05-11T08:36:18;47276.72;;;-140.95;65.71
38054;BME280;23859;50.672;7.164;2023-05-11T08:38:44;47264.63;;;-140.95;66.21
38054;BME280;23859;50.672;7.164;2023-05-11T08:41:11;47750.28;;;-140.95;64.67
38054;BME280;23859;50.672;7.164;2023-05-11T08:43:39;47280.75;;;-140.95;64.23
38054;BME280;23859;50.672;7.164;2023-05-11T08:46:06;47280.75;;;-140.95;61.73
38054;BME280;23859;50.672;7.164;2023-05-11T08:48:34;47268.66;;;-140.95;62.94
38054;BME280;23859;50.672;7.164;2023-05-11T08:51:00;47248.50;;;-140.95;63.83
38054;BME280;23859;50.672;7.164;2023-05-11T08:53:28;47240.47;;;-140.95;61.48
38054;BME280;23859;50.672;7.164;2023-05-11T08:55:57;47246.50;;;-140.95;62.34
38054;BME280;23859;50.672;7.164;2023-05-11T08:58:23;47254.56;;;-140.95;62.26
38054;BME280;23859;50.672;7.164;2023-05-11T09:00:49;47256.56;;;-140.95;61.47
38054;BME280;23859;50.672;7.164;2023-05-11T09:03:17;47252.53;;;-140.95;61.94
38054;BME280;23859;50.672;7.164;2023-05-11T09:05:45;47244.50;;;-140.95;61.64
38054;BME280;23859;50.672;7.164;2023-05-11T09:08:13;47244.50;;;-140.95;61.63
38054;BME280;23859;50.672;7.164;2023-05-11T09:10:39;47236.44;;;-140.95;61.06
38054;BME280;23859;50.672;7.164;2023-05-11T09:13:07;47242.47;;;-140.95;60.81
38054;BME280;23859;50.672;7.164;2023-05-11T09:15:33;47264.63;;;-140.95;60.68
38054;BME280;23859;50.672;7.164;2023-05-11T09:17:59;47256.56;;;-140.95;60.59
38054;BME280;23859;50.672;7.164;2023-05-11T09:20:29;47248.50;;;-140.95;60.17
38054;BME280;23859;50.672;7.164;2023-05-11T09:22:59;47248.50;;;-140.95;58.39
38054;BME280;23859;50.672;7.164;2023-05-11T09:25:28;47238.44;;;-140.95;59.67
38054;BME280;23859;50.672;7.164;2023-05-11T09:27:58;47248.50;;;-140.95;60.01
38054;BME280;23859;50.672;7.164;2023-05-11T09:30:24;47244.50;;;-140.95;60.60
38054;BME280;23859;50.672;7.164;2023-05-11T09:32:55;47220.31;;;-140.95;61.44
38054;BME280;23859;50.672;7.164;2023-05-11T09:35:24;47252.53;;;-140.95;61.14
38054;BME280;23859;50.672;7.164;2023-05-11T09:38:11;47266.66;;;-140.95;62.26
38054;BME280;23859;50.672;7.164;2023-05-11T09:40:48;47256.56;;;-140.95;65.49
38054;BME280;23859;50.672;7.164;2023-05-11T09:43:25;47256.56;;;-140.95;64.11
38054;BME280;23859;50.672;7.164;2023-05-11T09:45:56;47252.53;;;-140.95;64.87
38054;BME280;23859;50.672;7.164;2023-05-11T09:48:28;47768.44;;;-140.95;64.00
38054;BME280;23859;50.672;7.164;2023-05-11T09:51:00;47224.34;;;-140.95;60.84
38054;BME280;23859;50.672;7.164;2023-05-11T09:53:34;47236.44;;;-140.95;57.73
38054;BME280;23859;50.672;7.164;2023-05-11T09:56:00;47236.44;;;-140.95;60.87
38054;BME280;23859;50.672;7.164;2023-05-11T09:58:50;47234.41;;;-140.95;60.42
38054;BME280;23859;50.672;7.164;2023-05-11T10:01:26;47216.28;;;-140.95;57.34
38054;BME280;23859;50.672;7.164;2023-05-11T10:03:54;47234.41;;;-140.95;57.14
38054;BME280;23859;50.672;7.164;2023-05-11T10:06:20;47208.22;;;-140.95;59.11
38054;BME280;23859;50.672;7.164;2023-05-11T10:08:46;47216.28;;;-140.95;56.51
38054;BME280;23859;50.672;7.164;2023-05-11T10:11:13;47212.25;;;-140.95;57.80
38054;BME280;23859;50.672;7.164;2023-05-11T10:13:39;47200.16;;;-140.95;54.68
38054;BME280;23859;50.672;7.164;2023-05-11T10:16:09;47171.94;;;-140.95;52.17
38054;BME280;23859;50.672;7.164;2023-05-11T10:18:36;47169.94;;;-140.95;49.93
38054;BME280;23859;50.672;7.164;2023-05-11T10:21:03;47180.00;;;-140.95;49.73
38054;BME280;23859;50.672;7.164;2023-05-11T10:23:30;47159.84;;;-140.95;51.41
38054;BME280;23859;50.672;7.164;2023-05-11T10:25:59;47159.84;;;-140.95;51.13
38054;BME280;23859;50.672;7.164;2023-05-11T10:28:26;47141.72;;;-140.95;49.15
38054;BME280;23859;50.672;7.164;2023-05-11T10:30:53;47163.88;;;-140.95;48.32
38054;BME280;23859;50.672;7.164;2023-05-11T10:33:19;47155.81;;;-140.95;49.60
38054;BME280;23859;50.672;7.164;2023-05-11T10:35:46;47143.75;;;-140.95;47.63
38054;BME280;23859;50.672;7.164;2023-05-11T10:38:13;47101.41;;;-140.95;46.40
38054;BME280;23859;50.672;7.164;2023-05-11T10:40:42;47089.34;;;-140.95;46.47
38054;BME280;23859;50.672;7.164;2023-05-11T10:46:22;47105.44;;;-140.95;47.68
38054;BME280;23859;50.672;7.164;2023-05-11T10:49:03;47111.50;;;-140.95;49.33
38054;BME280;23859;50.672;7.164;2023-05-11T10:57:51;47063.13;;;-140.95;42.26
38054;BME280;23859;50.672;7.164;2023-05-11T11:03:13;47059.09;;;-140.95;42.91
38054;BME280;23859;50.672;7.164;2023-05-11T11:05:40;47079.25;;;-140.95;42.07
38054;BME280;23859;50.672;7.164;2023-05-11T11:08:08;47067.16;;;-140.95;41.76
38054;BME280;23859;50.672;7.164;2023-05-11T11:10:40;47083.28;;;-140.95;42.95
38054;BME280;23859;50.672;7.164;2023-05-11T11:13:10;47083.28;;;-140.95;43.39
38054;BME280;23859;50.672;7.164;2023-05-11T11:18:28;47109.47;;;-140.95;46.23
38054;BME280;23859;50.672;7.164;2023-05-11T11:20:57;47115.53;;;-140.95;46.64
38054;BME280;23859;50.672;7.164;2023-05-11T11:23:43;47087.31;;;-140.95;43.99
38054;BME280;23859;50.672;7.164;2023-05-11T11:26:11;47055.06;;;-140.95;40.47
38054;BME280;23859;50.672;7.164;2023-05-11T11:31:32;47030.91;;;-140.95;39.84
38054;BME280;23859;50.672;7.164;2023-05-11T11:39:45;47034.94;;;-140.95;42.28
38054;BME280;23859;50.672;7.164;2023-05-11T11:45:26;47075.22;;;-140.95;45.17
38054;BME280;23859;50.672;7.164;2023-05-11T11:48:10;47099.41;;;-140.95;46.03
38054;BME280;23859;50.672;7.164;2023-05-11T11:50:39;47103.44;;;-140.95;48.32
38054;BME280;23859;50.672;7.164;2023-05-11T11:53:09;47103.44;;;-140.95;46.91
38054;BME280;23859;50.672;7.164;2023-05-11T11:55:50;47095.38;;;-140.95;48.16
38054;BME280;23859;50.672;7.164;2023-05-11T12:01:20;47051.03;;;-140.95;46.43
38054;BME280;23859;50.672;7.164;2023-05-11T12:04:08;47047.03;;;-140.95;44.16
38054;BME280;23859;50.672;7.164;2023-05-11T12:06:39;47036.94;;;-140.95;42.42
38054;BME280;23859;50.672;7.164;2023-05-11T12:09:06;46984.56;;;-140.95;42.97
38054;BME280;23859;50.672;7.164;2023-05-11T12:11:33;47051.03;;;-140.95;44.35
38054;BME280;23859;50.672;7.164;2023-05-11T12:14:00;47034.94;;;-140.95;44.40
38054;BME280;23859;50.672;7.164;2023-05-11T12:16:27;47022.84;;;-140.95;44.21
38054;BME280;23859;50.672;7.164;2023-05-11T12:18:58;47018.81;;;-140.95;43.89
38054;BME280;23859;50.672;7.164;2023-05-11T12:21:26;47016.78;;;-140.95;42.34
38054;BME280;23859;50.672;7.164;2023-05-11T12:23:58;47030.91;;;-140.95;43.72
38054;BME280;23859;50.672;7.164;2023-05-11T12:26:26;47026.88;;;-140.95;44.28
38054;BME280;23859;50.672;7.164;2023-05-11T12:29:11;47038.97;;;-140.95;43.68
38054;BME280;23859;50.672;7.164;2023-05-11T12:31:39;47038.97;;;-140.95;43.68
38054;BME280;23859;50.672;7.164;2023-05-11T12:34:05;47024.84;;;-140.95;43.06
38054;BME280;23859;50.672;7.164;2023-05-11T12:36:33;47028.88;;;-140.95;42.78
38054;BME280;23859;50.672;7.164;2023-05-11T12:38:59;47026.88;;;-140.95;40.96
38054;BME280;23859;50.672;7.164;2023-05-11T12:41:25;47026.88;;;-140.95;41.74
38054;BME280;23859;50.672;7.164;2023-05-11T12:43:53;47018.81;;;-140.95;41.40
38054;BME280;23859;50.672;7.164;2023-05-11T12:46:20;47024.84;;;-140.95;40.17
38054;BME280;23859;50.672;7.164;2023-05-11T12:48:48;47014.78;;;-140.95;41.62
38054;BME280;23859;50.672;7.164;2023-05-11T12:51:47;47016.78;;;-140.95;40.67
38054;BME280;23859;50.672;7.164;2023-05-11T12:54:32;47018.81;;;-140.95;40.01
38054;BME280;23859;50.672;7.164;2023-05-11T12:57:00;47006.72;;;-140.95;39.32
38054;BME280;23859;50.672;7.164;2023-05-11T12:59:27;47010.75;;;-140.95;43.09
38054;BME280;23859;50.672;7.164;2023-05-11T13:02:10;47014.78;;;-140.95;41.01
38054;BME280;23859;50.672;7.164;2023-05-11T13:04:39;47022.84;;;-140.95;40.43
38054;BME280;23859;50.672;7.164;2023-05-11T13:07:06;47030.91;;;-140.95;43.52
38054;BME280;23859;50.672;7.164;2023-05-11T13:09:32;47020.81;;;-140.95;40.06
38054;BME280;23859;50.672;7.164;2023-05-11T13:12:14;47038.97;;;-140.95;43.01
38054;BME280;23859;50.672;7.164;2023-05-11T13:14:45;47032.91;;;-140.95;42.31
38054;BME280;23859;50.672;7.164;2023-05-11T13:17:13;46952.31;;;-140.95;41.16
38054;BME280;23859;50.672;7.164;2023-05-11T13:19:39;46978.50;;;-140.95;41.78
38054;BME280;23859;50.672;7.164;2023-05-11T13:22:09;47034.94;;;-140.95;41.17